Standing Rock, South Dakota
Current Conditions -  °F | °C
As of 11:52 PM on Tuesday 21 Oct 2014 (Local Time) from KMBG Reporting Station
Clear Clear  
Wind Chill: 66°   Ceiling: Unl
Heat Index: 66°   Visibility: 10mi
Dew Point: 48°   Wind: 18mph
Humidity: 52%   Direction: 170°S
Pressure: 29.69"   Gusts: 31mph
Location:  45.7843°N, 100.515°W
Report Text: KMBG 220552Z AUTO 17016G27KT 10SM CLR 19/09 A2969 RMK AO2 PK WND 16027/0543 SLP045 T01890089 10233 20178 403000117 58007 $
Loading
Personal Weather Stations






























Interactive Weather Map
Tropical Storm Tracking
New forecast layout! Learn more

10-Day Weather Forecast

Advertisements
Track Severe Weather on mobile